createdAt,value
2018-10-09T00:01:16.642Z,26.57
2018-10-09T00:03:49.281Z,26.23
2018-10-09T00:06:21.805Z,31.73
2018-10-09T00:08:54.821Z,26.57
2018-10-09T00:11:27.428Z,34.97
2018-10-09T00:13:59.985Z,43.53
2018-10-09T00:16:32.988Z,41.50
2018-10-09T00:19:06.544Z,36.57
2018-10-09T00:21:39.103Z,38.60
2018-10-09T00:24:12.956Z,35.67
2018-10-09T00:26:45.446Z,36.03
2018-10-09T00:29:18.094Z,31.63
2018-10-09T00:31:52.282Z,25.27
2018-10-09T00:34:24.920Z,21.85
2018-10-09T00:36:57.446Z,20.47
2018-10-09T00:39:30.710Z,23.00
2018-10-09T00:42:03.257Z,22.27
2018-10-09T00:44:38.461Z,24.13
2018-10-09T00:47:11.886Z,19.77
2018-10-09T00:49:44.648Z,24.07
2018-10-09T00:52:18.024Z,19.23
2018-10-09T00:54:51.226Z,16.00
2018-10-09T00:57:24.244Z,15.00
2018-10-09T00:59:56.866Z,17.00
2018-10-09T01:02:29.977Z,19.33
2018-10-09T01:05:02.545Z,21.80
2018-10-09T01:07:36.082Z,21.60
2018-10-09T01:10:11.202Z,22.87
2018-10-09T01:12:43.999Z,19.57
2018-10-09T01:15:15.904Z,25.70
2018-10-09T01:17:49.774Z,30.33
2018-10-09T01:20:30.312Z,24.23
2018-10-09T01:23:06.037Z,24.97
2018-10-09T01:25:39.137Z,31.97
2018-10-09T01:28:12.191Z,43.77
2018-10-09T01:30:44.882Z,45.70
2018-10-09T01:33:17.528Z,41.40
2018-10-09T01:35:51.410Z,36.17
2018-10-09T01:38:23.970Z,42.60
2018-10-09T01:40:56.909Z,34.53
2018-10-09T01:43:30.080Z,22.73
2018-10-09T01:46:02.678Z,33.93
2018-10-09T01:48:35.210Z,26.47
2018-10-09T01:51:09.419Z,25.30
2018-10-09T01:53:42.006Z,28.53
2018-10-09T01:56:14.691Z,28.43
2018-10-09T01:58:49.589Z,30.57
2018-10-09T02:01:22.166Z,24.80
2018-10-09T02:03:55.009Z,26.73
2018-10-09T02:06:28.211Z,26.62
2018-10-09T02:09:00.733Z,24.23
2018-10-09T02:11:33.326Z,27.10
2018-10-09T02:14:06.239Z,27.87
2018-10-09T02:16:38.961Z,29.47
2018-10-09T02:19:11.496Z,25.23
2018-10-09T02:21:44.670Z,32.20
2018-10-09T02:24:17.266Z,29.23
2018-10-09T02:26:49.761Z,40.93
2018-10-09T02:29:22.826Z,47.20
2018-10-09T02:31:55.384Z,43.77
2018-10-09T02:34:28.739Z,42.40
2018-10-09T02:37:03.255Z,38.00
2018-10-09T02:39:36.639Z,53.58
2018-10-09T02:42:09.845Z,47.45
2018-10-09T02:44:42.748Z,42.17
2018-10-09T02:47:17.163Z,31.53
2018-10-09T02:49:51.124Z,31.77
2018-10-09T02:52:24.496Z,31.70
2018-10-09T02:54:57.759Z,29.77
2018-10-09T02:57:30.837Z,36.08
2018-10-09T03:00:07.165Z,40.13
2018-10-09T03:02:39.813Z,42.83
2018-10-09T03:05:13.076Z,39.80
2018-10-09T03:07:46.207Z,47.77
2018-10-09T03:10:18.849Z,49.07
2018-10-09T03:12:52.409Z,55.58
2018-10-09T03:15:26.235Z,59.83
2018-10-09T03:17:58.703Z,58.33
2018-10-09T03:20:31.467Z,50.33
2018-10-09T03:23:04.748Z,39.00
2018-10-09T03:25:37.441Z,35.07
2018-10-09T03:28:10.106Z,31.42
2018-10-09T03:30:42.932Z,25.93
2018-10-09T03:33:15.404Z,29.83
2018-10-09T03:35:48.065Z,24.37
2018-10-09T03:38:20.610Z,31.97
2018-10-09T03:40:53.441Z,29.97
2018-10-09T03:43:25.959Z,36.77
2018-10-09T03:45:58.404Z,33.47
2018-10-09T03:48:31.586Z,32.03
2018-10-09T03:51:05.022Z,32.13
2018-10-09T03:53:37.740Z,36.40
2018-10-09T03:56:10.694Z,36.27
2018-10-09T03:58:46.523Z,31.90
2018-10-09T04:01:18.956Z,30.90
2018-10-09T04:03:51.935Z,29.17
2018-10-09T04:06:24.545Z,33.60
2018-10-09T04:08:57.071Z,48.20
2018-10-09T04:11:30.842Z,37.83
2018-10-09T04:14:06.047Z,35.10
2018-10-09T04:16:39.432Z,48.90
2018-10-09T04:19:13.485Z,39.70
2018-10-09T04:21:45.824Z,35.70
2018-10-09T04:24:25.248Z,40.67
2018-10-09T04:26:58.662Z,49.13
2018-10-09T04:29:32.289Z,54.37
2018-10-09T04:32:05.130Z,33.57
2018-10-09T04:34:38.122Z,33.37
2018-10-09T04:37:10.712Z,36.13
2018-10-09T04:39:43.523Z,32.90
2018-10-09T04:42:17.715Z,42.73
2018-10-09T04:44:51.331Z,34.77
2018-10-09T04:47:24.919Z,34.07
2018-10-09T04:50:04.383Z,30.80
2018-10-09T04:52:37.283Z,49.20
2018-10-09T04:55:09.809Z,40.33
2018-10-09T04:57:43.102Z,46.80
2018-10-09T05:00:17.213Z,39.20
2018-10-09T05:02:49.644Z,41.40
2018-10-09T05:05:22.558Z,42.37
2018-10-09T05:07:55.412Z,35.07
2018-10-09T05:10:31.661Z,37.30
2018-10-09T05:13:08.775Z,33.33
2018-10-09T05:15:44.695Z,38.30
2018-10-09T05:18:20.951Z,44.45
2018-10-09T05:21:01.422Z,43.23
2018-10-09T05:23:37.459Z,43.53
2018-10-09T05:26:13.265Z,39.30
2018-10-09T05:28:50.166Z,42.73
2018-10-09T05:31:26.447Z,49.53
2018-10-09T05:34:02.645Z,46.70
2018-10-09T05:36:39.670Z,41.63
2018-10-09T05:39:15.796Z,52.22
2018-10-09T05:41:49.541Z,54.17
2018-10-09T05:44:26.368Z,51.20
2018-10-09T05:47:01.634Z,46.10
2018-10-09T05:49:38.449Z,36.00
2018-10-09T05:52:16.459Z,46.00
2018-10-09T05:54:52.575Z,42.33
2018-10-09T05:57:29.300Z,38.67
2018-10-09T06:00:13.426Z,44.67
2018-10-09T06:03:02.207Z,50.83
2018-10-09T06:05:40.071Z,37.53
2018-10-09T06:08:20.445Z,44.83
2018-10-09T06:10:55.018Z,42.53
2018-10-09T06:13:28.220Z,49.77
2018-10-09T06:16:01.596Z,39.43
2018-10-09T06:18:34.162Z,43.30
2018-10-09T06:21:09.212Z,41.97
2018-10-09T06:23:43.937Z,45.53
2018-10-09T06:26:16.508Z,43.77
2018-10-09T06:28:52.400Z,44.27
2018-10-09T06:31:25.843Z,46.83
2018-10-09T06:34:01.563Z,44.47
2018-10-09T06:36:37.193Z,42.55
2018-10-09T06:39:11.988Z,40.07
2018-10-09T06:41:45.979Z,39.03
2018-10-09T06:44:21.291Z,37.40
2018-10-09T06:46:55.087Z,42.63
2018-10-09T06:49:28.753Z,40.93
2018-10-09T06:52:05.181Z,48.43
2018-10-09T06:54:37.793Z,48.40
2018-10-09T06:57:10.256Z,41.57
2018-10-09T06:59:44.479Z,56.77
2018-10-09T07:02:17.901Z,51.50
2018-10-09T07:04:50.383Z,50.70
2018-10-09T07:07:23.443Z,50.50
2018-10-09T07:09:56.206Z,42.67
2018-10-09T07:12:29.645Z,48.33
2018-10-09T07:15:08.292Z,41.40
2018-10-09T07:17:40.907Z,46.67
2018-10-09T07:20:13.685Z,41.93
2018-10-09T07:22:46.656Z,33.83
2018-10-09T07:25:19.164Z,34.90
2018-10-09T07:27:51.930Z,43.57
2018-10-09T07:30:24.798Z,34.10
2018-10-09T07:32:57.781Z,39.23
2018-10-09T07:35:30.430Z,30.80
2018-10-09T07:38:05.453Z,55.27
2018-10-09T07:40:38.320Z,45.53
2018-10-09T07:43:11.009Z,34.08
2018-10-09T07:45:44.435Z,34.53
2018-10-09T07:48:16.920Z,39.70
2018-10-09T07:50:50.448Z,36.13
2018-10-09T07:53:23.504Z,37.07
2018-10-09T07:55:56.765Z,35.50
2018-10-09T07:58:32.823Z,25.85
2018-10-09T08:01:06.469Z,29.73
2018-10-09T08:03:39.605Z,56.20
2018-10-09T08:06:13.773Z,64.50
2018-10-09T08:08:46.416Z,37.70
2018-10-09T08:11:19.371Z,29.47
2018-10-09T08:13:51.944Z,38.63
2018-10-09T08:16:24.643Z,28.70
2018-10-09T08:19:02.012Z,33.00
2018-10-09T08:21:35.881Z,40.00
2018-10-09T08:24:09.450Z,35.50
2018-10-09T08:26:45.998Z,31.63
2018-10-09T08:29:19.981Z,34.93
2018-10-09T08:31:55.005Z,30.50
2018-10-09T08:34:29.189Z,30.73
2018-10-09T08:37:01.728Z,35.77
2018-10-09T08:39:38.311Z,32.13
2018-10-09T08:42:13.876Z,32.50
2018-10-09T08:44:48.267Z,30.37
2018-10-09T08:47:22.481Z,27.40
2018-10-09T08:49:58.290Z,29.57
2018-10-09T08:52:30.900Z,27.07
2018-10-09T08:55:03.569Z,25.12
2018-10-09T08:57:39.961Z,24.00
2018-10-09T09:00:16.895Z,25.57
2018-10-09T09:02:50.414Z,25.13
2018-10-09T09:05:23.470Z,21.90
2018-10-09T09:07:59.635Z,22.40
2018-10-09T09:10:35.081Z,20.53
2018-10-09T09:13:09.335Z,21.57
2018-10-09T09:15:41.782Z,22.27
2018-10-09T09:18:15.792Z,19.20
2018-10-09T09:20:50.266Z,19.47
2018-10-09T09:23:22.711Z,20.50
2018-10-09T09:25:55.770Z,19.87
2018-10-09T09:28:28.226Z,19.40
2018-10-09T09:31:01.548Z,23.47
2018-10-09T09:33:37.789Z,18.73
2018-10-09T09:36:10.436Z,21.50
2018-10-09T09:38:46.323Z,21.37
2018-10-09T09:41:19.729Z,21.43
2018-10-09T09:43:52.526Z,19.60
2018-10-09T09:46:34.013Z,20.65
2018-10-09T09:49:06.608Z,18.50
2018-10-09T09:51:40.827Z,19.83
2018-10-09T09:54:14.527Z,19.83
2018-10-09T09:56:47.167Z,21.10
2018-10-09T09:59:19.731Z,22.20
2018-10-09T10:01:52.784Z,17.80
2018-10-09T10:04:27.915Z,18.33
2018-10-09T10:07:01.808Z,21.27
2018-10-09T10:09:40.865Z,17.63
2018-10-09T10:12:14.577Z,18.50
2018-10-09T10:14:50.201Z,19.43
2018-10-09T10:17:24.118Z,20.80
2018-10-09T10:19:56.911Z,22.87
2018-10-09T10:22:29.974Z,18.93
2018-10-09T10:25:02.492Z,19.57
2018-10-09T10:27:36.284Z,16.67
2018-10-09T10:30:10.359Z,17.20
2018-10-09T10:32:46.687Z,17.17
2018-10-09T10:35:19.460Z,19.17
2018-10-09T10:37:52.572Z,16.92
2018-10-09T10:40:30.820Z,20.80
2018-10-09T10:43:04.765Z,18.83
2018-10-09T10:45:42.455Z,17.13
2018-10-09T10:48:15.388Z,17.55
2018-10-09T10:50:48.946Z,17.63
2018-10-09T10:53:21.570Z,22.20
2018-10-09T10:55:54.212Z,17.50
2018-10-09T10:58:27.100Z,17.23
2018-10-09T11:01:00.101Z,19.67
2018-10-09T11:03:33.826Z,18.98
2018-10-09T11:06:06.680Z,17.37
2018-10-09T11:08:43.861Z,15.77
2018-10-09T11:11:19.691Z,16.60
2018-10-09T11:13:52.276Z,16.52
2018-10-09T11:16:26.077Z,16.03
2018-10-09T11:19:02.462Z,15.90
2018-10-09T11:21:35.059Z,15.77
2018-10-09T11:24:13.368Z,19.63
2018-10-09T11:26:49.164Z,15.47
2018-10-09T11:29:24.192Z,17.50
2018-10-09T11:32:05.063Z,18.40
2018-10-09T11:34:38.946Z,17.67
2018-10-09T11:37:17.152Z,19.53
2018-10-09T11:39:49.743Z,17.07
2018-10-09T11:42:24.077Z,19.20
2018-10-09T11:45:00.187Z,17.43
2018-10-09T11:47:34.767Z,14.43
2018-10-09T11:50:09.767Z,17.12
2018-10-09T11:52:43.512Z,17.80
2018-10-09T11:55:16.997Z,15.60
2018-10-09T11:57:51.264Z,17.48
2018-10-09T12:00:24.061Z,14.47
2018-10-09T12:02:57.747Z,14.20
2018-10-09T12:05:31.446Z,15.60
2018-10-09T12:08:08.235Z,16.98
2018-10-09T12:10:41.625Z,14.97
2018-10-09T12:13:15.995Z,12.60
2018-10-09T12:15:53.357Z,14.00
2018-10-09T12:18:25.897Z,15.00
2018-10-09T12:20:59.428Z,16.87
2018-10-09T12:23:34.886Z,14.83
2018-10-09T12:26:10.072Z,13.38
2018-10-09T12:28:43.934Z,14.87
2018-10-09T12:31:18.867Z,15.07
2018-10-09T12:33:54.973Z,15.73
2018-10-09T12:36:29.894Z,12.23
2018-10-09T12:39:12.664Z,15.13
2018-10-09T12:41:48.309Z,12.57
2018-10-09T12:44:26.285Z,12.95
2018-10-09T12:46:59.548Z,11.93
2018-10-09T12:49:33.707Z,13.77
2018-10-09T12:52:08.544Z,16.00
2018-10-09T12:54:42.933Z,11.13
2018-10-09T12:57:15.749Z,11.40
2018-10-09T12:59:51.739Z,12.23
2018-10-09T13:02:26.947Z,12.17
2018-10-09T13:05:02.317Z,12.53
2018-10-09T13:07:37.877Z,11.73
2018-10-09T13:10:12.581Z,13.17
2018-10-09T13:12:46.410Z,13.37
2018-10-09T13:15:21.929Z,13.40
2018-10-09T13:17:55.248Z,11.60
2018-10-09T13:20:30.180Z,13.97
2018-10-09T13:23:06.440Z,9.85
2018-10-09T13:25:40.481Z,9.60
2018-10-09T13:28:14.594Z,13.87
2018-10-09T13:30:49.219Z,13.13
2018-10-09T13:33:22.620Z,12.97
2018-10-09T13:35:56.974Z,11.97
2018-10-09T13:38:31.707Z,10.07
2018-10-09T13:41:12.141Z,14.30
2018-10-09T13:43:47.999Z,11.67
2018-10-09T13:46:23.146Z,14.10
2018-10-09T13:48:56.599Z,12.37
2018-10-09T13:51:32.299Z,9.70
2018-10-09T13:54:07.373Z,9.37
2018-10-09T13:56:43.402Z,8.80
2018-10-09T13:59:16.525Z,11.77
2018-10-09T14:01:49.425Z,12.20
2018-10-09T14:04:24.035Z,9.07
2018-10-09T14:06:56.716Z,15.03
2018-10-09T14:09:29.635Z,15.50
2018-10-09T14:12:02.720Z,16.10
2018-10-09T14:14:35.949Z,15.53
2018-10-09T14:17:09.148Z,10.90
2018-10-09T14:19:43.719Z,10.77
2018-10-09T14:22:16.337Z,12.83
2018-10-09T14:24:51.886Z,10.17
2018-10-09T14:27:24.976Z,12.80
2018-10-09T14:29:57.491Z,13.07
2018-10-09T14:32:30.035Z,13.73
2018-10-09T14:35:04.409Z,10.37
2018-10-09T14:37:36.968Z,11.45
2018-10-09T14:40:10.473Z,13.53
2018-10-09T14:42:45.802Z,9.83
2018-10-09T14:45:19.166Z,11.23
2018-10-09T14:47:52.166Z,9.17
2018-10-09T14:50:25.033Z,13.53
2018-10-09T14:53:00.078Z,8.33
2018-10-09T14:55:33.550Z,12.73
2018-10-09T14:58:08.368Z,11.23
2018-10-09T15:00:40.913Z,10.97
2018-10-09T15:03:14.376Z,12.87
2018-10-09T15:05:48.217Z,11.97
2018-10-09T15:08:22.478Z,12.30
2018-10-09T15:10:54.931Z,11.03
2018-10-09T15:13:28.873Z,12.33
2018-10-09T15:16:02.507Z,10.47
2018-10-09T15:18:36.068Z,12.93
2018-10-09T15:21:10.498Z,10.90
2018-10-09T15:23:44.189Z,11.77
2018-10-09T15:26:17.604Z,12.50
2018-10-09T15:28:50.388Z,10.40
2018-10-09T15:31:26.282Z,11.20
2018-10-09T15:34:00.679Z,9.87
2018-10-09T15:36:36.000Z,11.60
2018-10-09T15:39:11.628Z,11.10
2018-10-09T15:41:45.508Z,10.33
2018-10-09T15:44:19.804Z,10.37
2018-10-09T15:46:53.666Z,11.23
2018-10-09T15:49:31.588Z,10.57
2018-10-09T15:52:09.621Z,8.90
2018-10-09T15:54:46.971Z,11.30
2018-10-09T15:57:21.915Z,10.00
2018-10-09T15:59:57.541Z,9.63
2018-10-09T16:02:32.885Z,11.70
2018-10-09T16:05:07.912Z,11.67
2018-10-09T16:07:42.737Z,12.43
2018-10-09T16:10:18.788Z,12.23
2018-10-09T16:12:56.799Z,9.20
2018-10-09T16:15:31.305Z,7.83
2018-10-09T16:18:09.329Z,10.37
2018-10-09T16:20:42.482Z,11.53
2018-10-09T16:23:18.018Z,11.83
2018-10-09T16:25:54.865Z,8.80
2018-10-09T16:28:30.560Z,10.67
2018-10-09T16:31:05.660Z,9.77
2018-10-09T16:33:39.907Z,10.65
2018-10-09T16:36:16.049Z,9.93
2018-10-09T16:38:49.459Z,9.50
2018-10-09T16:41:29.732Z,10.83
2018-10-09T16:44:07.488Z,9.40
2018-10-09T16:46:42.960Z,10.50
2018-10-09T16:49:21.627Z,12.90
2018-10-09T16:52:07.089Z,8.03
2018-10-09T16:54:42.103Z,11.32
2018-10-09T16:57:15.617Z,8.60
2018-10-09T16:59:50.551Z,9.87
2018-10-09T17:02:25.578Z,10.53
2018-10-09T17:04:58.015Z,7.67
2018-10-09T17:07:31.045Z,15.00
2018-10-09T17:10:04.988Z,10.07
2018-10-09T17:12:44.860Z,9.90
2018-10-09T17:15:17.381Z,12.07
2018-10-09T17:17:54.492Z,10.63
2018-10-09T17:20:27.239Z,11.40
2018-10-09T17:23:03.283Z,12.73
2018-10-09T17:25:37.941Z,11.90
2018-10-09T17:28:11.596Z,10.20
2018-10-09T17:30:45.056Z,9.50
2018-10-09T17:33:19.833Z,13.70
2018-10-09T17:35:54.490Z,10.47
2018-10-09T17:38:29.340Z,8.67
2018-10-09T17:41:01.964Z,10.80
2018-10-09T17:43:37.532Z,11.97
2018-10-09T17:46:11.565Z,13.40
2018-10-09T17:48:44.937Z,13.47
2018-10-09T17:51:18.981Z,10.97
2018-10-09T17:53:52.347Z,10.13
2018-10-09T17:56:28.683Z,11.05
2018-10-09T17:59:03.568Z,11.97
2018-10-09T18:01:38.773Z,9.32
2018-10-09T18:04:12.237Z,13.03
2018-10-09T18:06:46.812Z,13.40
2018-10-09T18:09:21.305Z,14.77
2018-10-09T18:11:56.929Z,13.93
2018-10-09T18:14:32.690Z,15.17
2018-10-09T18:17:09.824Z,16.90
2018-10-09T18:19:45.071Z,22.17
2018-10-09T18:22:19.490Z,14.40
2018-10-09T18:24:54.698Z,16.33
2018-10-09T18:27:29.508Z,15.93
2018-10-09T18:30:05.193Z,18.20
2018-10-09T18:32:37.840Z,15.23
2018-10-09T18:35:12.417Z,15.40
2018-10-09T18:37:44.981Z,17.63
2018-10-09T18:40:18.002Z,19.02
2018-10-09T18:42:52.533Z,19.77
2018-10-09T18:45:26.615Z,18.07
2018-10-09T18:48:02.034Z,15.77
2018-10-09T18:50:35.104Z,19.77
2018-10-09T18:53:08.064Z,20.17
2018-10-09T18:55:43.297Z,19.63
2018-10-09T18:58:18.027Z,18.00
2018-10-09T19:00:56.388Z,14.80
2018-10-09T19:03:29.303Z,16.13
2018-10-09T19:06:10.121Z,18.93
2018-10-09T19:08:46.444Z,22.30
2018-10-09T19:11:26.406Z,24.75
2018-10-09T19:14:00.332Z,27.33
2018-10-09T19:16:48.452Z,26.97
2018-10-09T19:19:37.781Z,22.43
2018-10-09T19:22:19.379Z,20.53
2018-10-09T19:24:53.254Z,19.50
2018-10-09T19:27:26.780Z,21.93
2018-10-09T19:30:22.693Z,20.67
2018-10-09T19:32:58.934Z,24.43
2018-10-09T19:35:34.069Z,21.63
2018-10-09T19:38:10.185Z,21.67
2018-10-09T19:40:52.806Z,19.03
2018-10-09T19:43:29.564Z,19.30
2018-10-09T19:46:03.842Z,20.73
2018-10-09T19:48:39.386Z,22.90
2018-10-09T19:51:14.073Z,22.80
2018-10-09T19:53:46.760Z,25.97
2018-10-09T19:56:21.979Z,23.43
2018-10-09T19:58:55.797Z,21.90
2018-10-09T20:01:31.331Z,24.77
2018-10-09T20:04:08.180Z,21.27
2018-10-09T20:06:41.988Z,25.33
2018-10-09T20:09:15.457Z,27.90
2018-10-09T20:11:49.974Z,26.83
2018-10-09T20:14:25.388Z,29.03
2018-10-09T20:16:59.258Z,24.93
2018-10-09T20:19:37.459Z,34.03
2018-10-09T20:22:13.070Z,25.37
2018-10-09T20:24:48.114Z,26.77
2018-10-09T20:27:26.442Z,25.00
2018-10-09T20:30:00.146Z,30.80
2018-10-09T20:32:35.019Z,26.17
2018-10-09T20:35:09.079Z,30.87
2018-10-09T20:37:44.292Z,31.57
2018-10-09T20:40:17.708Z,26.70
2018-10-09T20:42:54.178Z,24.67
2018-10-09T20:45:28.738Z,29.40
2018-10-09T20:48:01.947Z,29.63
2018-10-09T20:50:38.383Z,29.50
2018-10-09T20:53:13.618Z,24.20
2018-10-09T20:55:48.832Z,23.40
2018-10-09T20:58:27.431Z,23.10
2018-10-09T21:01:01.693Z,50.37
2018-10-09T21:03:39.086Z,78.20
2018-10-09T21:06:14.137Z,32.03
2018-10-09T21:08:47.917Z,24.70
2018-10-09T21:11:25.278Z,26.17
2018-10-09T21:13:59.305Z,26.90
2018-10-09T21:16:41.839Z,22.87
2018-10-09T21:19:22.267Z,28.37
2018-10-09T21:21:56.687Z,29.73
2018-10-09T21:24:30.831Z,29.27
2018-10-09T21:27:05.812Z,31.57
2018-10-09T21:29:41.363Z,31.17
2018-10-09T21:32:14.647Z,37.30
2018-10-09T21:34:49.436Z,33.93
2018-10-09T21:37:24.050Z,32.07
2018-10-09T21:39:57.569Z,26.80
2018-10-09T21:42:31.314Z,27.30
2018-10-09T21:45:07.860Z,36.20
2018-10-09T21:47:47.038Z,31.90
2018-10-09T21:50:20.898Z,33.93
2018-10-09T21:52:54.069Z,33.83
2018-10-09T21:55:30.108Z,43.30
2018-10-09T21:58:03.158Z,37.17
2018-10-09T22:00:42.800Z,35.80
2018-10-09T22:03:17.452Z,47.00
2018-10-09T22:05:51.646Z,49.23
2018-10-09T22:08:26.447Z,43.67
2018-10-09T22:10:59.585Z,66.87
2018-10-09T22:13:33.737Z,64.97
2018-10-09T22:16:12.837Z,59.00
2018-10-09T22:18:47.008Z,51.97
2018-10-09T22:21:20.754Z,42.00
2018-10-09T22:23:55.157Z,44.67
2018-10-09T22:26:28.250Z,62.47
2018-10-09T22:29:01.123Z,56.47
2018-10-09T22:31:35.187Z,51.67
2018-10-09T22:34:08.715Z,57.93
2018-10-09T22:36:58.320Z,57.50
2018-10-09T22:39:33.291Z,60.33
2018-10-09T22:42:08.095Z,60.10
2018-10-09T22:44:41.564Z,62.20
2018-10-09T22:47:16.791Z,62.23
2018-10-09T22:49:51.420Z,56.13
2018-10-09T22:52:25.822Z,48.63
2018-10-09T22:54:59.661Z,42.05
2018-10-09T22:57:33.041Z,41.77
2018-10-09T23:00:12.764Z,37.30
2018-10-09T23:02:45.800Z,42.70
2018-10-09T23:05:19.532Z,41.03
2018-10-09T23:07:53.998Z,40.67
2018-10-09T23:10:27.258Z,49.70
2018-10-09T23:13:00.870Z,48.33
2018-10-09T23:15:34.668Z,52.67
2018-10-09T23:18:07.978Z,51.50
2018-10-09T23:20:41.172Z,47.07
2018-10-09T23:23:15.533Z,40.63
2018-10-09T23:25:50.041Z,48.07
2018-10-09T23:28:22.767Z,47.63
2018-10-09T23:30:59.998Z,52.60
2018-10-09T23:33:34.312Z,49.00
2018-10-09T23:36:07.338Z,50.17
2018-10-09T23:38:41.435Z,45.85
2018-10-09T23:41:14.298Z,44.00
2018-10-09T23:43:48.477Z,40.67
2018-10-09T23:46:22.933Z,39.83
2018-10-09T23:48:55.956Z,39.97
2018-10-09T23:51:29.176Z,33.00
2018-10-09T23:54:03.491Z,47.13
2018-10-09T23:56:37.329Z,61.40
2018-10-09T23:59:10.984Z,50.27
